Time;durP1;ratioP1;P1;durP2;ratioP2;P2;SDS_P1;SDS_P2;PMS_P1;PMS_P2;Temp;Humidity;BMP_temperature;BMP_pressure;BME280_temperature;BME280_humidity;BME280_pressure;Samples;Min_cycle;Max_cycle;Signal;HPM_P1;HPM_P2
2023/03/01 00:01:11;;;;;;;21.42;14.63;;;0.60;99.90;;;;;;5056606;28;20203;-83
2023/03/01 00:03:38;;;;;;;25.55;14.63;;;0.60;99.90;;;;;;5057110;28;20227;-83
2023/03/01 00:06:06;;;;;;;20.98;14.15;;;0.50;99.90;;;;;;5057447;28;20251;-83
2023/03/01 00:08:33;;;;;;;19.25;14.30;;;0.40;99.90;;;;;;5057413;28;20207;-82
2023/03/01 00:11:06;;;;;;;21.98;13.02;;;0.40;99.90;;;;;;5058138;28;20223;-82
2023/03/01 00:13:33;;;;;;;18.88;14.00;;;0.30;1.00;;;;;;5060428;28;20227;-82
2023/03/01 00:16:03;;;;;;;19.55;13.05;;;0.20;99.90;;;;;;5063149;28;20213;-83
2023/03/01 00:18:30;;;;;;;18.20;13.98;;;0.30;1.00;;;;;;5063019;28;20206;-83
2023/03/01 00:20:57;;;;;;;21.17;13.48;;;0.30;1.00;;;;;;5062330;28;20727;-83
2023/03/01 00:23:24;;;;;;;21.45;14.75;;;0.30;99.90;;;;;;5061035;28;20234;-83
2023/03/01 00:25:51;;;;;;;29.90;15.13;;;0.20;1.00;;;;;;5060004;28;20294;-82
2023/03/01 00:28:18;;;;;;;20.85;15.05;;;0.20;1.00;;;;;;5058573;28;20203;-83
2023/03/01 00:30:45;;;;;;;23.55;15.48;;;0.20;1.00;;;;;;5057171;28;20245;-82
2023/03/01 00:33:14;;;;;;;23.77;14.20;;;0.20;92.20;;;;;;5057304;28;20223;-82
2023/03/01 00:35:40;;;;;;;16.98;13.07;;;0.20;1.00;;;;;;5057733;28;20226;-84
2023/03/01 00:38:08;;;;;;;20.83;14.60;;;0.20;1.00;;;;;;5056325;28;20207;-82
2023/03/01 00:40:36;;;;;;;19.33;12.70;;;0.20;1.00;;;;;;5057635;28;20209;-82
2023/03/01 00:43:03;;;;;;;19.75;14.38;;;0.10;1.00;;;;;;5057462;28;20226;-83
2023/03/01 00:45:31;;;;;;;17.85;12.73;;;0.10;1.00;;;;;;5057064;28;20204;-83
2023/03/01 00:47:58;;;;;;;25.10;14.15;;;0.00;1.00;;;;;;5057556;28;20199;-82
2023/03/01 00:50:26;;;;;;;20.23;13.95;;;-0.10;99.90;;;;;;5057265;28;20572;-82
2023/03/01 00:52:54;;;;;;;20.63;14.10;;;0.00;1.00;;;;;;5056612;28;20249;-82
2023/03/01 00:55:21;;;;;;;22.67;14.05;;;-0.10;1.00;;;;;;5056799;28;20576;-82
2023/03/01 00:57:48;;;;;;;23.45;14.30;;;-0.10;1.00;;;;;;5056929;28;20265;-82
2023/03/01 01:00:16;;;;;;;20.40;13.25;;;-0.10;1.00;;;;;;5056276;28;20203;-82
2023/03/01 01:02:42;;;;;;;17.70;12.52;;;0.00;1.00;;;;;;5057329;28;20567;-82
2023/03/01 01:05:09;;;;;;;20.27;12.05;;;0.20;92.10;;;;;;5056469;28;20294;-82
2023/03/01 01:07:38;;;;;;;22.35;13.30;;;0.10;1.00;;;;;;5065042;28;20213;-82
2023/03/01 01:10:05;;;;;;;17.65;12.38;;;0.00;1.00;;;;;;5063450;28;20207;-82
2023/03/01 01:12:32;;;;;;;19.85;13.38;;;-0.10;1.00;;;;;;5064301;28;20255;-82
2023/03/01 01:15:00;;;;;;;19.42;13.45;;;-0.10;1.00;;;;;;5067442;28;20262;-82
2023/03/01 01:17:27;;;;;;;17.70;11.43;;;-0.10;34.70;;;;;;5076620;28;20207;-82
2023/03/01 01:19:53;;;;;;;18.05;11.98;;;-0.10;99.90;;;;;;5073982;28;20208;-82
2023/03/01 01:22:20;;;;;;;21.40;13.57;;;0.00;99.90;;;;;;5062097;28;20805;-82
2023/03/01 01:24:48;;;;;;;15.45;12.07;;;-0.10;1.00;;;;;;5060444;28;20662;-83
2023/03/01 01:27:15;;;;;;;19.15;12.40;;;-0.20;1.00;;;;;;5059332;28;20222;-82
2023/03/01 01:29:42;;;;;;;17.40;12.60;;;-0.10;1.00;;;;;;5057358;28;20291;-83
2023/03/01 01:32:09;;;;;;;22.00;13.00;;;-0.10;99.90;;;;;;5056687;28;20239;-82
2023/03/01 01:34:36;;;;;;;21.65;12.38;;;;;;;;;;5059701;28;20270;-82
2023/03/01 01:37:03;;;;;;;21.77;13.27;;;-0.10;99.90;;;;;;5069343;28;20290;-82
2023/03/01 01:39:30;;;;;;;17.80;13.15;;;-0.20;99.90;;;;;;5064447;28;20221;-82
2023/03/01 01:41:58;;;;;;;19.50;13.82;;;-0.30;99.90;;;;;;5063177;28;20220;-82
2023/03/01 01:44:27;;;;;;;25.48;13.43;;;-0.10;99.90;;;;;;5066134;28;20203;-82
2023/03/01 01:46:57;;;;;;;22.02;13.30;;;-1.00;99.90;;;;;;5067604;28;20266;-82
2023/03/01 01:49:29;;;;;;;19.33;13.32;;;-0.10;99.90;;;;;;5066969;28;20210;-82
2023/03/01 01:52:02;;;;;;;19.40;13.38;;;0.00;99.90;;;;;;5064815;28;20250;-82
2023/03/01 01:54:36;;;;;;;26.60;12.85;;;0.00;99.90;;;;;;5064311;28;20191;-82
2023/03/01 01:57:08;;;;;;;19.77;14.00;;;0.10;99.90;;;;;;5063684;28;20647;-82
2023/03/01 01:59:35;;;;;;;21.50;13.25;;;0.10;99.90;;;;;;5062558;28;20191;-82
2023/03/01 02:02:04;;;;;;;22.73;13.00;;;0.60;99.90;;;;;;5060841;28;20226;-82
2023/03/01 02:04:32;;;;;;;17.05;12.57;;;0.00;99.90;;;;;;5062076;28;20211;-82
2023/03/01 02:07:04;;;;;;;25.85;14.07;;;0.40;99.90;;;;;;5068954;28;20271;-82
2023/03/01 02:09:33;;;;;;;20.00;12.60;;;0.10;67.50;;;;;;5071707;28;20255;-82
2023/03/01 02:12:00;;;;;;;20.90;13.85;;;0.10;1.00;;;;;;5069875;28;20277;-82
2023/03/01 02:14:28;;;;;;;25.33;16.15;;;0.20;2.20;;;;;;5067772;28;20282;-82
2023/03/01 02:16:55;;;;;;;27.27;13.07;;;0.30;99.90;;;;;;5067343;28;20298;-82
2023/03/01 02:19:34;;;;;;;26.65;15.82;;;0.20;1.00;;;;;;5067600;28;20207;-82
2023/03/01 02:22:13;;;;;;;19.58;14.55;;;0.00;1.00;;;;;;5074572;28;20250;-82
2023/03/01 02:24:50;;;;;;;28.85;17.08;;;-0.10;99.90;;;;;;5074999;28;20195;-81
2023/03/01 02:27:21;;;;;;;30.13;15.23;;;0.00;99.90;;;;;;5075235;28;20293;-82
2023/03/01 02:29:50;;;;;;;25.00;15.77;;;-0.20;1.00;;;;;;5071130;28;20212;-82
2023/03/01 02:32:24;;;;;;;27.95;17.65;;;-0.30;1.00;;;;;;5067103;28;20244;-82
2023/03/01 02:34:52;;;;;;;29.80;18.00;;;-0.40;1.00;;;;;;5066793;28;20218;-82
2023/03/01 02:37:24;;;;;;;25.42;14.77;;;-0.40;1.00;;;;;;5067103;28;20205;-82
2023/03/01 02:39:57;;;;;;;29.25;15.93;;;-0.40;33.10;;;;;;5068338;28;20194;-82
2023/03/01 02:42:29;;;;;;;23.42;14.57;;;-0.40;99.90;;;;;;5068173;28;20226;-82
2023/03/01 02:44:57;;;;;;;28.80;17.08;;;-0.50;1.00;;;;;;5068303;28;20253;-82
2023/03/01 02:47:24;;;;;;;27.00;17.35;;;-0.60;99.90;;;;;;5067298;28;20267;-82
2023/03/01 02:49:51;;;;;;;26.58;17.77;;;-0.40;1.00;;;;;;5066177;28;20225;-82
2023/03/01 02:52:30;;;;;;;26.80;17.08;;;-0.50;99.90;;;;;;5066874;28;20315;-82
2023/03/01 02:55:01;;;;;;;33.45;17.75;;;-0.50;99.90;;;;;;5065023;28;20188;-82
2023/03/01 02:57:29;;;;;;;29.77;17.90;;;-0.40;1.00;;;;;;5064730;28;20212;-82
2023/03/01 03:00:00;;;;;;;22.83;18.73;;;-0.40;99.90;;;;;;5064841;28;20219;-82
2023/03/01 03:02:36;;;;;;;26.58;19.58;;;-0.70;99.90;;;;;;5065215;28;20225;-82
2023/03/01 03:05:06;;;;;;;30.95;17.45;;;-0.30;1.00;;;;;;5064846;28;20191;-82
2023/03/01 03:07:34;;;;;;;28.10;18.13;;;-0.40;99.90;;;;;;5064977;28;20190;-82
2023/03/01 03:10:01;;;;;;;30.50;19.33;;;-0.40;1.00;;;;;;5065117;28;20566;-82
2023/03/01 03:12:28;;;;;;;26.40;17.85;;;-0.40;99.90;;;;;;5064611;28;20606;-82
2023/03/01 03:14:56;;;;;;;27.65;19.33;;;-0.50;99.90;;;;;;5064374;28;20299;-82
2023/03/01 03:17:23;;;;;;;32.42;19.40;;;-0.60;99.90;;;;;;5064393;28;20208;-82
2023/03/01 03:19:50;;;;;;;31.92;21.08;;;-0.10;99.90;;;;;;5065414;28;20231;-82
2023/03/01 03:22:17;;;;;;;29.92;18.85;;;-0.80;99.90;;;;;;5065122;28;20309;-82
2023/03/01 03:24:44;;;;;;;35.65;19.92;;;-0.70;99.90;;;;;;5065398;28;20203;-82
2023/03/01 03:27:11;;;;;;;32.83;18.63;;;-0.60;99.90;;;;;;5057850;28;20239;-82
2023/03/01 03:29:38;;;;;;;30.70;18.60;;;-0.50;99.90;;;;;;5070071;28;20195;-82
2023/03/01 03:32:07;;;;;;;27.52;17.85;;;-0.70;99.90;;;;;;5079550;28;20246;-82
2023/03/01 03:34:33;;;;;;;35.08;18.98;;;-0.90;99.90;;;;;;5079724;28;20176;-82
2023/03/01 03:37:00;;;;;;;31.60;19.92;;;-1.00;1.00;;;;;;5074031;28;20212;-82
2023/03/01 03:39:28;;;;;;;28.88;20.58;;;-0.80;1.00;;;;;;5070466;28;20294;-83
2023/03/01 03:41:55;;;;;;;31.20;20.05;;;-0.60;1.00;;;;;;5063163;28;20222;-82
2023/03/01 03:44:22;;;;;;;34.25;19.92;;;-0.90;1.00;;;;;;5059561;28;20238;-82
2023/03/01 03:46:49;;;;;;;25.30;17.85;;;-0.90;99.90;;;;;;5061828;28;20202;-82
2023/03/01 03:49:17;;;;;;;28.70;18.40;;;-1.00;99.90;;;;;;5061406;28;20298;-82
2023/03/01 03:51:46;;;;;;;30.02;18.75;;;-0.60;1.00;;;;;;5074512;28;20230;-82
2023/03/01 03:54:13;;;;;;;30.25;19.52;;;-1.10;1.00;;;;;;5075484;28;20209;-82
2023/03/01 03:56:40;;;;;;;30.92;18.80;;;-0.80;1.00;;;;;;5075357;28;20275;-81
2023/03/01 03:59:06;;;;;;;28.63;18.73;;;-0.90;99.90;;;;;;5062718;28;20328;-82
2023/03/01 04:01:33;;;;;;;26.35;18.58;;;-0.50;99.90;;;;;;5056893;28;20195;-82
2023/03/01 04:04:03;;;;;;;31.30;19.33;;;-0.70;32.70;;;;;;5058858;28;20206;-82
2023/03/01 04:06:32;;;;;;;29.67;19.10;;;-0.70;1.00;;;;;;5058334;28;20623;-82
2023/03/01 04:09:00;;;;;;;25.10;17.90;;;-0.60;29.10;;;;;;5060335;28;20704;-82
2023/03/01 04:11:27;;;;;;;28.20;18.38;;;-0.70;98.50;;;;;;5059158;28;20203;-82
2023/03/01 04:13:55;;;;;;;30.48;18.65;;;-0.90;99.90;;;;;;5059728;28;20209;-82
2023/03/01 04:16:23;;;;;;;27.63;17.80;;;-1.00;1.00;;;;;;5068641;28;20271;-82
2023/03/01 04:18:50;;;;;;;26.30;17.90;;;-0.90;1.00;;;;;;5073969;28;20206;-82
2023/03/01 04:21:17;;;;;;;24.30;17.52;;;-0.80;1.00;;;;;;5070352;28;20199;-82
2023/03/01 04:23:46;;;;;;;31.75;17.90;;;-0.90;1.00;;;;;;5072488;28;20240;-82
2023/03/01 04:26:13;;;;;;;23.27;16.52;;;-0.90;99.90;;;;;;5078259;28;20205;-82
2023/03/01 04:28:42;;;;;;;22.77;17.25;;;-0.90;99.90;;;;;;5076942;28;20208;-82
2023/03/01 04:31:16;;;;;;;25.90;18.08;;;-0.90;99.90;;;;;;5073938;28;20210;-82
2023/03/01 04:33:44;;;;;;;29.88;18.15;;;1.50;99.90;;;;;;5072380;28;20238;-82
2023/03/01 04:36:13;;;;;;;26.25;16.85;;;-1.00;99.90;;;;;;5068047;28;20210;-82
2023/03/01 04:38:40;;;;;;;31.92;17.67;;;-0.90;1.00;;;;;;5073791;28;20211;-83
2023/03/01 04:41:11;;;;;;;23.98;17.15;;;-0.90;1.00;;;;;;5071328;28;20639;-82
2023/03/01 04:43:38;;;;;;;26.00;16.65;;;-1.00;99.90;;;;;;5074648;28;20222;-81
2023/03/01 04:46:08;;;;;;;21.90;17.30;;;-1.00;1.00;;;;;;5074546;28;20266;-81
2023/03/01 04:48:35;;;;;;;26.08;18.23;;;-1.20;99.90;;;;;;5074176;28;20214;-82
2023/03/01 04:51:02;;;;;;;27.67;16.38;;;-1.20;99.90;;;;;;5069056;28;20293;-82
2023/03/01 04:53:30;;;;;;;28.05;16.98;;;-1.20;1.00;;;;;;5065136;28;20242;-82
2023/03/01 04:55:57;;;;;;;24.08;17.27;;;-1.30;1.00;;;;;;5064764;28;20203;-82
2023/03/01 04:58:28;;;;;;;26.98;17.10;;;-1.40;99.90;;;;;;5063342;28;20210;-82
2023/03/01 05:00:55;;;;;;;22.00;16.52;;;-1.30;1.00;;;;;;5063572;28;20221;-82
2023/03/01 05:03:22;;;;;;;25.35;17.10;;;-1.30;1.00;;;;;;5063383;28;20634;-83
2023/03/01 05:05:52;;;;;;;22.92;15.98;;;-1.30;1.00;;;;;;5064164;28;20203;-83
2023/03/01 05:08:20;;;;;;;21.92;15.13;;;-1.40;1.00;;;;;;5064713;28;20213;-83
2023/03/01 05:10:50;;;;;;;21.85;16.40;;;-1.30;1.00;;;;;;5067480;28;20249;-83
2023/03/01 05:13:20;;;;;;;24.77;15.43;;;-1.20;25.10;;;;;;5074761;28;20229;-83
2023/03/01 05:15:49;;;;;;;27.23;17.23;;;-1.10;1.00;;;;;;5068258;28;20192;-82
2023/03/01 05:18:16;;;;;;;22.52;17.95;;;-1.10;1.00;;;;;;5064341;28;20257;-83
2023/03/01 05:20:44;;;;;;;24.77;16.27;;;-1.20;99.90;;;;;;5064589;28;20213;-83
2023/03/01 05:23:11;;;;;;;26.35;17.00;;;-1.20;1.00;;;;;;5064240;28;20245;-83
2023/03/01 05:25:39;;;;;;;26.75;17.98;;;-1.20;1.00;;;;;;5069640;28;20213;-81
2023/03/01 05:28:09;;;;;;;36.95;22.52;;;-1.10;1.00;;;;;;5069678;28;20226;-81
2023/03/01 05:30:38;;;;;;;27.48;17.65;;;-1.30;1.00;;;;;;5070531;28;20203;-82
2023/03/01 05:33:12;;;;;;;34.78;21.80;;;-1.30;16.20;;;;;;5069123;28;20466;-81
2023/03/01 05:35:40;;;;;;;23.55;17.13;;;-1.20;1.00;;;;;;5068702;28;20196;-82
2023/03/01 05:38:07;;;;;;;25.35;17.15;;;-1.40;1.00;;;;;;5068422;28;20636;-82
2023/03/01 05:40:35;;;;;;;23.67;17.60;;;-1.40;99.90;;;;;;5069258;28;20241;-82
2023/03/01 05:43:04;;;;;;;24.27;17.20;;;-1.30;1.00;;;;;;5068993;28;20219;-82
2023/03/01 05:45:33;;;;;;;45.00;25.88;;;-1.40;1.00;;;;;;5067544;28;20230;-83
2023/03/01 05:48:00;;;;;;;23.35;19.17;;;-1.30;99.90;;;;;;5067391;28;20265;-83
2023/03/01 05:50:29;;;;;;;24.58;17.38;;;-1.30;99.90;;;;;;5067615;28;20199;-83
2023/03/01 05:52:59;;;;;;;26.65;17.35;;;-1.20;1.00;;;;;;5067324;28;20312;-83
2023/03/01 05:55:26;;;;;;;26.05;16.50;;;-1.30;1.00;;;;;;5067332;28;20191;-83
2023/03/01 05:57:53;;;;;;;30.20;18.88;;;-1.20;99.90;;;;;;5067686;28;20249;-83
2023/03/01 06:00:22;;;;;;;28.48;16.83;;;-1.20;99.90;;;;;;5069337;28;20270;-82
2023/03/01 06:02:49;;;;;;;27.52;17.25;;;-1.30;1.00;;;;;;5066022;28;20231;-82
2023/03/01 06:05:16;;;;;;;26.13;16.38;;;-1.30;99.90;;;;;;5072383;28;20190;-82
2023/03/01 06:07:45;;;;;;;22.05;17.80;;;-1.50;99.90;;;;;;5076191;28;20242;-82
2023/03/01 06:10:13;;;;;;;34.88;19.58;;;-1.30;1.00;;;;;;5077205;28;20238;-82
2023/03/01 06:12:41;;;;;;;28.55;19.17;;;-1.20;1.00;;;;;;5072024;28;20227;-81
2023/03/01 06:15:10;;;;;;;29.60;19.58;;;-1.30;1.00;;;;;;5068445;28;20210;-82
2023/03/01 06:17:38;;;;;;;29.15;19.65;;;-1.20;1.00;;;;;;5064680;28;20235;-82
2023/03/01 06:20:08;;;;;;;32.47;17.35;;;-1.30;99.90;;;;;;5065478;28;20207;-82
2023/03/01 06:22:35;;;;;;;24.48;17.15;;;-1.10;35.00;;;;;;5064572;28;20254;-82
2023/03/01 06:25:04;;;;;;;21.35;17.20;;;-1.20;1.00;;;;;;5068176;28;20203;-82
2023/03/01 06:27:31;;;;;;;27.45;17.98;;;-1.20;1.00;;;;;;5074234;28;20211;-82
2023/03/01 06:29:58;;;;;;;28.85;18.45;;;-1.10;99.90;;;;;;5072282;28;20314;-82
2023/03/01 06:32:25;;;;;;;24.35;16.85;;;-1.10;1.00;;;;;;5065019;28;20326;-82
2023/03/01 06:34:51;;;;;;;29.67;18.20;;;-1.20;1.00;;;;;;5065646;28;20270;-82
2023/03/01 06:37:18;;;;;;;23.90;18.02;;;-0.90;68.90;;;;;;5067243;28;20203;-82
2023/03/01 06:39:45;;;;;;;31.75;21.52;;;-1.20;1.00;;;;;;5076199;28;20231;-82
2023/03/01 06:42:13;;;;;;;23.52;16.35;;;-1.00;99.90;;;;;;5076977;28;20234;-82
2023/03/01 06:44:40;;;;;;;26.15;19.08;;;-0.90;1.00;;;;;;5068913;28;20246;-82
2023/03/01 06:47:07;;;;;;;20.45;17.63;;;-0.90;1.00;;;;;;5063551;28;20207;-82
2023/03/01 06:49:34;;;;;;;27.05;18.80;;;-0.80;99.90;;;;;;5063319;28;20203;-83
2023/03/01 06:52:00;;;;;;;25.73;18.33;;;-0.80;1.00;;;;;;5064654;28;20705;-82
2023/03/01 06:54:27;;;;;;;26.85;18.92;;;-0.70;99.90;;;;;;5063962;28;20292;-82
2023/03/01 06:56:54;;;;;;;26.92;17.55;;;-0.80;99.90;;;;;;5064095;28;20777;-82
2023/03/01 06:59:22;;;;;;;30.58;19.98;;;-0.80;99.90;;;;;;5064242;28;20229;-82
2023/03/01 07:01:49;;;;;;;25.65;17.40;;;-0.70;1.00;;;;;;5066823;28;20305;-82
2023/03/01 07:04:16;;;;;;;39.72;20.27;;;-0.70;99.90;;;;;;5070469;28;20271;-82
2023/03/01 07:06:43;;;;;;;45.10;22.67;;;-0.60;99.90;;;;;;5071767;28;20210;-82
2023/03/01 07:09:09;;;;;;;31.73;21.40;;;-0.50;99.90;;;;;;5071412;28;20266;-82
2023/03/01 07:11:36;;;;;;;35.03;20.98;;;-0.30;99.90;;;;;;5070665;28;20266;-82
2023/03/01 07:14:05;;;;;;;30.35;19.67;;;-0.20;1.00;;;;;;5068886;28;20258;-81
2023/03/01 07:16:33;;;;;;;28.92;18.58;;;-0.20;1.00;;;;;;5065642;28;20203;-83
2023/03/01 07:19:00;;;;;;;28.73;17.73;;;-0.10;99.90;;;;;;5065833;28;20234;-82
2023/03/01 07:21:27;;;;;;;32.63;19.52;;;-0.10;99.90;;;;;;5072953;28;20338;-82
2023/03/01 07:23:54;;;;;;;26.13;16.52;;;-0.10;75.00;;;;;;5072915;28;20199;-82
2023/03/01 07:26:20;;;;;;;35.30;21.23;;;0.20;49.50;;;;;;5070281;28;20223;-81
2023/03/01 07:28:47;;;;;;;28.67;20.95;;;0.20;1.00;;;;;;5066489;28;20206;-82
2023/03/01 07:31:14;;;;;;;32.28;21.73;;;0.40;99.90;;;;;;5069305;28;20210;-82
2023/03/01 07:33:42;;;;;;;36.00;20.35;;;0.40;1.00;;;;;;5067152;28;20295;-81
2023/03/01 07:36:10;;;;;;;29.50;22.50;;;0.50;1.00;;;;;;5075649;28;20241;-81
2023/03/01 07:38:37;;;;;;;29.52;21.65;;;0.60;1.00;;;;;;5069197;28;20222;-82
2023/03/01 07:41:05;;;;;;;28.88;20.83;;;0.70;1.00;;;;;;5058559;28;20208;-82
2023/03/01 07:43:32;;;;;;;33.13;21.25;;;0.80;1.00;;;;;;5058120;28;20310;-81
2023/03/01 07:46:00;;;;;;;26.92;19.65;;;0.80;1.00;;;;;;5058037;28;20671;-82
2023/03/01 07:48:27;;;;;;;30.88;21.60;;;0.90;1.00;;;;;;5062070;28;20665;-81
2023/03/01 07:50:55;;;;;;;34.35;21.55;;;0.90;1.00;;;;;;5073445;28;20191;-81
2023/03/01 07:53:22;;;;;;;25.98;19.60;;;1.00;1.00;;;;;;5079121;28;20275;-82
2023/03/01 07:55:49;;;;;;;32.25;20.33;;;1.40;1.00;;;;;;5079207;28;20175;-83
2023/03/01 07:58:16;;;;;;;35.78;20.88;;;1.20;99.90;;;;;;5067037;28;20227;-83
2023/03/01 08:00:42;;;;;;;33.20;22.95;;;1.30;99.90;;;;;;5057315;28;20631;-83
2023/03/01 08:03:09;;;;;;;34.58;20.13;;;1.30;99.90;;;;;;5057285;28;20226;-83
2023/03/01 08:05:36;;;;;;;21.83;18.58;;;1.60;1.00;;;;;;5057388;28;20609;-82
2023/03/01 08:08:05;;;;;;;35.15;17.95;;;1.50;99.90;;;;;;5058034;28;20290;-82
2023/03/01 08:10:32;;;;;;;34.08;20.05;;;1.60;99.90;;;;;;5057693;28;20203;-83
2023/03/01 08:12:59;;;;;;;23.63;18.88;;;1.70;99.90;;;;;;5058344;28;20227;-82
2023/03/01 08:15:26;;;;;;;33.90;19.70;;;1.90;99.20;;;;;;5061528;28;20283;-83
2023/03/01 08:17:53;;;;;;;42.53;19.80;;;2.30;69.80;;;;;;5060643;28;20286;-82
2023/03/01 08:20:20;;;;;;;25.85;17.00;;;2.30;99.90;;;;;;5070435;28;20272;-81
2023/03/01 08:22:47;;;;;;;28.60;17.92;;;2.20;1.00;;;;;;5072051;28;20223;-82
2023/03/01 08:25:15;;;;;;;22.65;16.60;;;2.40;99.90;;;;;;5072209;28;20204;-82
2023/03/01 08:27:42;;;;;;;34.30;19.55;;;2.30;1.00;;;;;;5072728;28;20200;-82
2023/03/01 08:30:10;;;;;;;30.15;18.23;;;2.30;1.00;;;;;;5072378;28;20291;-82
2023/03/01 08:32:38;;;;;;;39.22;25.20;;;2.40;1.00;;;;;;5069283;28;20254;-82
2023/03/01 08:35:06;;;;;;;27.58;18.63;;;2.40;1.00;;;;;;5068683;28;20202;-82
2023/03/01 08:37:33;;;;;;;25.67;20.00;;;2.50;1.00;;;;;;5069801;28;20230;-82
2023/03/01 08:40:00;;;;;;;24.95;17.27;;;2.40;99.90;;;;;;5068759;28;20686;-82
2023/03/01 08:42:28;;;;;;;24.80;17.83;;;2.50;1.00;;;;;;5067620;28;20244;-82
2023/03/01 08:44:56;;;;;;;21.10;15.60;;;2.60;1.00;;;;;;5064747;28;20631;-83
2023/03/01 08:47:23;;;;;;;21.60;16.00;;;2.70;1.00;;;;;;5062252;28;20200;-82
2023/03/01 08:49:51;;;;;;;27.55;16.67;;;2.80;1.00;;;;;;5062362;28;20239;-82
2023/03/01 08:52:17;;;;;;;24.50;15.25;;;2.90;1.00;;;;;;5062267;28;20228;-82
2023/03/01 08:54:44;;;;;;;18.10;13.55;;;2.70;1.00;;;;;;5062898;28;20232;-82
2023/03/01 08:57:12;;;;;;;18.65;12.25;;;2.90;1.00;;;;;;5062039;28;20293;-82
2023/03/01 08:59:41;;;;;;;15.57;11.73;;;3.00;1.00;;;;;;5064007;28;20207;-83
2023/03/01 09:02:12;;;;;;;22.90;11.73;;;3.10;1.00;;;;;;5066782;28;20252;-82
2023/03/01 09:04:39;;;;;;;17.85;12.60;;;3.20;1.00;;;;;;5066049;28;20248;-82
2023/03/01 09:07:07;;;;;;;16.77;11.32;;;3.30;1.00;;;;;;5068538;28;20686;-82
2023/03/01 09:09:34;;;;;;;14.70;10.85;;;3.40;1.00;;;;;;5071243;28;20231;-82
2023/03/01 09:12:01;;;;;;;12.85;11.00;;;3.40;1.00;;;;;;5075451;28;20291;-82
2023/03/01 09:14:28;;;;;;;13.02;9.65;;;3.50;1.00;;;;;;5076650;28;20211;-82
2023/03/01 09:16:56;;;;;;;16.27;10.20;;;3.50;1.00;;;;;;5074120;28;20271;-82
2023/03/01 09:19:23;;;;;;;13.65;10.32;;;3.50;1.00;;;;;;5071353;28;20199;-82
2023/03/01 09:21:52;;;;;;;20.08;9.82;;;3.50;1.00;;;;;;5066293;28;20220;-82
2023/03/01 09:24:21;;;;;;;11.20;9.23;;;3.50;1.00;;;;;;5068408;28;20203;-82
2023/03/01 09:26:50;;;;;;;14.77;10.32;;;3.50;1.00;;;;;;5067683;28;20227;-82
2023/03/01 09:29:18;;;;;;;18.08;11.88;;;3.70;11.30;;;;;;5067014;28;20215;-82
2023/03/01 09:31:44;;;;;;;16.65;10.80;;;3.60;1.00;;;;;;5066498;28;20230;-82
2023/03/01 09:34:15;;;;;;;15.00;11.38;;;3.60;1.00;;;;;;5067554;28;20220;-83
2023/03/01 09:36:41;;;;;;;20.45;10.70;;;3.60;1.00;;;;;;5071848;28;20256;-81
2023/03/01 09:39:09;;;;;;;13.38;10.25;;;3.90;1.00;;;;;;5066721;28;20210;-82
2023/03/01 09:41:54;;;;;;;14.43;11.32;;;3.90;1.00;;;;;;5066353;28;20199;-82
2023/03/01 09:44:32;;;;;;;12.45;9.88;;;3.90;1.00;;;;;;5065297;28;20188;-82
2023/03/01 09:47:00;;;;;;;18.83;10.70;;;4.00;1.00;;;;;;5065675;28;20215;-82
2023/03/01 09:49:31;;;;;;;23.23;12.38;;;4.10;1.00;;;;;;5065996;28;20200;-83
2023/03/01 09:52:01;;;;;;;12.75;9.77;;;4.00;1.00;;;;;;5066261;28;20231;-83
2023/03/01 09:54:28;;;;;;;12.95;10.20;;;4.10;1.00;;;;;;5066331;28;20212;-83
2023/03/01 09:57:14;;;;;;;16.75;11.90;;;4.40;1.00;;;;;;5066617;28;20232;-83
2023/03/01 09:59:57;;;;;;;16.08;10.15;;;4.40;1.00;;;;;;5067989;28;20191;-83
2023/03/01 10:02:32;;;;;;;13.65;10.32;;;4.50;1.00;;;;;;5077339;28;20224;-81
2023/03/01 10:05:12;;;;;;;17.05;10.10;;;4.30;1.00;;;;;;5077492;28;20184;-82
2023/03/01 10:07:47;;;;;;;13.45;10.25;;;4.50;1.00;;;;;;5072314;28;20195;-83
2023/03/01 10:10:29;;;;;;;19.67;9.38;;;4.60;1.00;;;;;;5066938;28;20198;-81
2023/03/01 10:12:58;;;;;;;9.55;7.70;;;4.50;1.00;;;;;;5071603;28;20315;-82
2023/03/01 10:15:35;;;;;;;15.52;7.90;;;6.40;1.00;;;;;;5075479;28;20238;-81
2023/03/01 10:18:07;;;;;;;10.15;8.30;;;4.50;1.00;;;;;;5075561;28;20201;-81
2023/03/01 10:20:46;;;;;;;11.30;8.50;;;4.90;1.00;;;;;;5076214;28;20204;-82
2023/03/01 10:23:13;;;;;;;11.52;8.40;;;4.80;1.00;;;;;;5075850;28;20291;-81
2023/03/01 10:25:54;;;;;;;10.18;7.70;;;4.80;1.00;;;;;;5074958;28;20268;-81
2023/03/01 10:28:27;;;;;;;8.77;7.95;;;4.90;1.00;;;;;;5074494;28;20687;-82
2023/03/01 10:30:55;;;;;;;10.02;6.53;;;5.00;1.00;;;;;;5072105;28;20188;-82
2023/03/01 10:33:25;;;;;;;8.48;6.47;;;4.80;1.00;;;;;;5074930;28;20287;-82
2023/03/01 10:35:53;;;;;;;10.77;6.75;;;4.80;1.00;;;;;;5075490;28;20193;-82
2023/03/01 10:38:21;;;;;;;8.90;7.20;;;4.70;1.00;;;;;;5075301;28;20259;-83
2023/03/01 10:40:54;;;;;;;9.23;6.88;;;4.70;1.00;;;;;;5071959;28;20222;-82
2023/03/01 10:43:21;;;;;;;9.45;7.32;;;4.80;1.00;;;;;;5069538;28;20256;-83
2023/03/01 10:45:48;;;;;;;7.57;5.95;;;5.00;1.00;;;;;;5070697;28;20267;-83
2023/03/01 10:48:17;;;;;;;8.90;6.60;;;4.80;1.00;;;;;;5074365;28;20243;-82
2023/03/01 10:50:45;;;;;;;9.18;7.05;;;4.90;1.00;;;;;;5070734;28;20286;-83
2023/03/01 10:53:26;;;;;;;7.75;6.07;;;5.00;1.00;;;;;;5069746;28;20230;-83
2023/03/01 10:56:06;;;;;;;12.82;7.05;;;5.00;1.00;;;;;;5067257;28;20189;-82
2023/03/01 10:58:33;;;;;;;10.38;7.50;;;5.10;1.00;;;;;;5069494;28;20718;-83
2023/03/01 11:01:02;;;;;;;8.80;6.45;;;5.20;1.00;;;;;;5068009;28;20290;-83
2023/03/01 11:03:30;;;;;;;6.40;5.80;;;5.20;1.00;;;;;;5064741;28;20224;-83
2023/03/01 11:06:07;;;;;;;7.53;5.35;;;5.30;1.00;;;;;;5063766;28;20230;-82
2023/03/01 11:08:40;;;;;;;7.38;6.32;;;5.40;1.00;;;;;;5061908;28;20227;-82
2023/03/01 11:11:24;;;;;;;7.65;5.72;;;5.60;1.00;;;;;;5061361;28;20188;-83
2023/03/01 11:13:59;;;;;;;5.38;4.85;;;5.50;1.00;;;;;;5060410;28;20304;-83
2023/03/01 11:16:30;;;;;;;9.02;5.50;;;5.40;1.00;;;;;;5061356;28;20275;-82
2023/03/01 11:18:59;;;;;;;8.07;5.55;;;5.40;1.00;;;;;;5060283;28;20188;-83
2023/03/01 11:21:29;;;;;;;8.02;5.28;;;5.50;1.00;;;;;;5060931;28;20227;-82
2023/03/01 11:23:59;;;;;;;7.97;6.43;;;5.50;1.00;;;;;;5063149;28;20267;-82
2023/03/01 11:26:25;;;;;;;10.73;6.45;;;5.50;1.00;;;;;;5060660;28;20207;-82
2023/03/01 11:28:57;;;;;;;7.13;4.90;;;5.60;1.00;;;;;;5059900;28;20294;-82
2023/03/01 11:31:27;;;;;;;10.43;4.60;;;5.60;1.00;;;;;;5060372;28;20191;-82
2023/03/01 11:34:00;;;;;;;6.90;5.65;;;5.60;1.00;;;;;;5060332;28;20713;-82
2023/03/01 11:36:32;;;;;;;6.72;5.15;;;5.80;1.00;;;;;;5062185;28;20727;-83
2023/03/01 11:39:13;;;;;;;6.55;5.15;;;5.70;1.00;;;;;;5062019;28;20195;-82
2023/03/01 11:41:42;;;;;;;7.30;5.28;;;5.30;1.00;;;;;;5062588;28;20203;-82
2023/03/01 11:44:17;;;;;;;6.82;5.30;;;5.70;99.90;;;;;;5061170;28;20205;-82
2023/03/01 11:46:59;;;;;;;7.05;4.72;;;5.80;99.90;;;;;;5059906;28;20194;-82
2023/03/01 11:49:56;;;;;;;9.82;5.72;;;5.90;1.00;;;;;;5060599;28;20267;-82
2023/03/01 11:52:32;;;;;;;6.38;4.32;;;6.50;1.00;;;;;;5060891;28;20224;-82
2023/03/01 11:55:18;;;;;;;12.30;5.10;;;6.10;1.00;;;;;;5066441;28;20208;-81
2023/03/01 11:58:06;;;;;;;6.88;4.15;;;6.10;99.90;;;;;;5067430;28;20213;-82
2023/03/01 12:01:01;;;;;;;8.70;5.05;;;6.00;1.00;;;;;;5067165;28;20223;-82
2023/03/01 12:03:34;;;;;;;5.03;3.80;;;5.90;99.90;;;;;;5067562;28;20235;-82
2023/03/01 12:06:40;;;;;;;4.88;4.38;;;5.90;99.90;;;;;;5068451;28;20186;-82
2023/03/01 12:09:24;;;;;;;5.70;4.53;;;6.00;99.90;;;;;;5059065;28;20204;-82
2023/03/01 12:12:09;;;;;;;4.95;4.35;;;6.00;99.90;;;;;;5060621;28;20220;-82
2023/03/01 12:15:00;;;;;;;6.40;5.28;;;6.10;99.90;;;;;;5068270;28;20211;-82
2023/03/01 12:17:47;;;;;;;5.35;3.85;;;6.20;99.90;;;;;;5078983;28;20236;-83
2023/03/01 12:20:22;;;;;;;6.45;4.40;;;6.20;99.90;;;;;;5078712;28;20192;-82
2023/03/01 12:23:06;;;;;;;4.07;3.55;;;6.30;99.90;;;;;;5067223;28;20223;-82
2023/03/01 12:25:39;;;;;;;5.53;3.42;;;6.10;1.00;;;;;;5068524;28;20211;-82
2023/03/01 12:28:26;;;;;;;5.53;4.15;;;6.30;99.90;;;;;;5066406;28;20283;-82
2023/03/01 12:31:09;;;;;;;4.13;3.17;;;6.40;1.00;;;;;;5066944;28;20592;-81
2023/03/01 12:33:46;;;;;;;5.35;3.95;;;6.50;99.90;;;;;;5069622;28;20230;-82
2023/03/01 12:36:36;;;;;;;19.65;4.93;;;6.50;99.90;;;;;;5069791;28;20239;-82
2023/03/01 12:39:17;;;;;;;5.65;3.42;;;6.40;99.90;;;;;;5068658;28;20199;-82
2023/03/01 12:41:49;;;;;;;5.55;3.10;;;6.70;1.00;;;;;;5068096;28;20191;-82
2023/03/01 12:44:30;;;;;;;4.60;3.15;;;6.60;99.90;;;;;;5064142;28;20188;-82
2023/03/01 12:47:12;;;;;;;4.53;4.10;;;6.50;99.90;;;;;;5064366;28;20189;-82
2023/03/01 12:49:42;;;;;;;6.15;4.35;;;6.60;99.90;;;;;;5068158;28;20251;-82
2023/03/01 12:52:14;;;;;;;5.38;3.67;;;6.90;1.00;;;;;;5066903;28;20258;-82
2023/03/01 12:54:42;;;;;;;5.93;4.13;;;7.10;1.00;;;;;;5061041;28;20215;-83
2023/03/01 12:57:17;;;;;;;6.43;4.45;;;6.70;99.90;;;;;;5059583;28;20204;-84